TAF and METAR

Decoding for American and Canadian METARs and TAFs is not fully implemented.

Could not understand the following METAR

K0CO 180148Z AUTO 31041G54KT 2SM -SN CLR M05/M14 A3021 RMK AO2 VIS 1V5
No TAF available for Empire